Time;durP1;ratioP1;P1;durP2;ratioP2;P2;SDS_P1;SDS_P2;PMS_P1;PMS_P2;Temp;Humidity;BMP_temperature;BMP_pressure;BME280_temperature;BME280_humidity;BME280_pressure;Samples;Min_cycle;Max_cycle;Signal;HPM_P1;HPM_P2
2022/12/19 00:02:03;;;;;;;120.10;54.90;;;-1.50;23.00;;;;;;5073898;28;20559;-70
2022/12/19 00:04:29;;;;;;;116.77;54.87;;;-1.50;24.00;;;;;;5074254;28;20252;-70
2022/12/19 00:06:57;;;;;;;107.10;47.07;;;-1.50;24.20;;;;;;5074423;28;20422;-70
2022/12/19 00:09:23;;;;;;;113.38;55.45;;;-1.50;24.20;;;;;;5074408;28;20176;-70
2022/12/19 00:11:49;;;;;;;112.90;55.53;;;-1.40;23.60;;;;;;5075579;28;20227;-70
2022/12/19 00:14:14;;;;;;;111.90;52.90;;;-1.40;23.70;;;;;;5073609;28;20546;-70
2022/12/19 00:16:40;;;;;;;114.03;54.80;;;-1.40;23.80;;;;;;5073868;28;20219;-71
2022/12/19 00:19:06;;;;;;;113.13;57.20;;;-1.40;23.90;;;;;;5074244;28;20175;-71
2022/12/19 00:21:33;;;;;;;121.50;58.83;;;-1.40;23.70;;;;;;5089013;28;20188;-71
2022/12/19 00:23:59;;;;;;;114.97;58.58;;;-1.40;23.90;;;;;;5076933;28;20205;-71
2022/12/19 00:26:27;;;;;;;113.63;54.17;;;-1.40;24.10;;;;;;5074470;28;20225;-69
2022/12/19 00:28:57;;;;;;;117.10;62.00;;;-1.40;24.60;;;;;;5074482;28;20182;-70
2022/12/19 00:31:23;;;;;;;112.35;54.85;;;-1.30;24.20;;;;;;5073571;28;20243;-69
2022/12/19 00:33:49;;;;;;;116.72;62.92;;;-1.30;23.80;;;;;;5089408;28;20572;-69
2022/12/19 00:36:21;;;;;;;109.27;53.70;;;-1.20;23.90;;;;;;5073240;28;20167;-70
2022/12/19 00:38:47;;;;;;;115.55;57.20;;;-1.30;23.90;;;;;;5074140;28;20176;-70
2022/12/19 00:41:19;;;;;;;111.18;51.63;;;-1.30;24.00;;;;;;5089364;28;20675;-70
2022/12/19 00:43:45;;;;;;;111.25;53.83;;;-1.20;23.40;;;;;;5072865;28;20583;-70
2022/12/19 00:46:13;;;;;;;116.57;57.63;;;-1.10;23.70;;;;;;5072121;28;20218;-69
2022/12/19 00:48:39;;;;;;;104.00;51.85;;;-1.00;23.60;;;;;;5073504;28;20215;-70
2022/12/19 00:51:14;;;;;;;116.50;59.90;;;-1.00;23.50;;;;;;5072848;28;20608;-69
2022/12/19 00:53:41;;;;;;;121.05;59.42;;;-1.00;23.20;;;;;;5075849;28;20469;-70
2022/12/19 00:56:10;;;;;;;119.60;56.30;;;-1.10;23.50;;;;;;5073592;28;20180;-70
2022/12/19 00:58:36;;;;;;;121.47;62.38;;;-1.00;23.50;;;;;;5072779;28;20174;-70
2022/12/19 01:01:11;;;;;;;105.63;54.03;;;-1.00;23.50;;;;;;5073611;28;20183;-70
2022/12/19 01:03:37;;;;;;;114.97;62.60;;;-1.10;24.40;;;;;;5072950;28;20657;-70
2022/12/19 01:06:03;;;;;;;122.53;57.53;;;-1.20;24.40;;;;;;5073198;28;20212;-70
2022/12/19 01:08:29;;;;;;;120.53;60.72;;;-1.00;24.60;;;;;;5073426;28;20184;-70
2022/12/19 01:10:55;;;;;;;112.37;60.70;;;-1.00;24.50;;;;;;5088790;28;20519;-70
2022/12/19 01:13:21;;;;;;;110.50;59.37;;;-0.90;24.60;;;;;;5088612;28;20254;-69
2022/12/19 01:15:47;;;;;;;116.68;57.95;;;-0.90;24.20;;;;;;5073387;28;20195;-70
2022/12/19 01:18:13;;;;;;;113.53;56.00;;;-0.90;24.10;;;;;;5089204;28;20203;-70
2022/12/19 01:20:41;;;;;;;121.38;69.97;;;-0.80;24.20;;;;;;5088961;28;20208;-69
2022/12/19 01:23:08;;;;;;;118.22;67.40;;;-0.80;23.60;;;;;;5088549;28;20186;-69
2022/12/19 01:25:35;;;;;;;111.50;58.70;;;-0.70;23.80;;;;;;5072634;28;20688;-69
2022/12/19 01:28:01;;;;;;;125.75;79.82;;;-0.70;23.40;;;;;;5089040;28;20650;-70
2022/12/19 01:30:27;;;;;;;122.03;69.47;;;-0.60;23.00;;;;;;5073063;28;20178;-70
2022/12/19 01:32:53;;;;;;;112.38;60.85;;;-0.50;23.20;;;;;;5072330;28;20178;-69
2022/12/19 01:35:19;;;;;;;109.97;51.73;;;-0.50;23.00;;;;;;5073334;28;20270;-69
2022/12/19 01:37:44;;;;;;;112.07;55.70;;;-0.40;22.60;;;;;;5073656;28;20451;-69
2022/12/19 01:40:12;;;;;;;111.23;54.40;;;-0.50;24.00;;;;;;5073128;28;20178;-71
2022/12/19 01:42:37;;;;;;;104.45;60.55;;;-0.60;24.40;;;;;;5073179;28;20177;-69
2022/12/19 01:45:03;;;;;;;110.50;55.93;;;-0.50;24.90;;;;;;5073495;28;20592;-69
2022/12/19 01:47:30;;;;;;;111.20;56.57;;;-0.50;24.90;;;;;;5073293;28;20418;-70
2022/12/19 01:49:55;;;;;;;114.88;67.35;;;-0.60;24.80;;;;;;5073267;28;20547;-71
2022/12/19 01:52:21;;;;;;;120.60;74.33;;;-0.50;24.90;;;;;;5088177;28;20177;-69
2022/12/19 01:54:47;;;;;;;117.85;64.78;;;-0.40;24.90;;;;;;5088281;28;20205;-69
2022/12/19 01:57:16;;;;;;;115.93;83.28;;;-0.30;23.90;;;;;;5072955;28;20586;-70
2022/12/19 01:59:51;;;;;;;125.20;82.90;;;-0.30;23.90;;;;;;5072993;28;20219;-70
2022/12/19 02:02:22;;;;;;;115.93;70.70;;;-0.30;24.30;;;;;;5073378;28;20184;-69
2022/12/19 02:04:47;;;;;;;116.15;75.00;;;-0.20;24.30;;;;;;5073174;28;20208;-70
2022/12/19 02:07:15;;;;;;;111.20;72.53;;;-0.10;24.00;;;;;;5073009;28;20666;-70
2022/12/19 02:09:41;;;;;;;118.63;82.75;;;-0.10;23.70;;;;;;5071260;28;20223;-70
2022/12/19 02:12:06;;;;;;;124.20;88.20;;;0.00;23.50;;;;;;5072599;28;20207;-69
2022/12/19 02:14:33;;;;;;;113.67;61.33;;;0.00;23.30;;;;;;5072553;28;20472;-70
2022/12/19 02:17:33;;;;;;;102.78;48.25;;;0.10;22.90;;;;;;5072937;28;20526;-69
2022/12/19 02:20:22;;;;;;;103.18;54.53;;;0.10;23.10;;;;;;5072707;28;20182;-70
2022/12/19 02:23:28;;;;;;;104.20;61.92;;;0.10;23.70;;;;;;5072451;28;20184;-70
2022/12/19 02:26:11;;;;;;;107.93;59.47;;;0.10;23.80;;;;;;5087996;28;20290;-70
2022/12/19 02:28:55;;;;;;;124.03;59.92;;;0.20;23.90;;;;;;5088057;28;20170;-69
2022/12/19 02:31:35;;;;;;;113.85;84.80;;;0.30;23.20;;;;;;5072301;28;20221;-70
2022/12/19 02:34:23;;;;;;;109.82;66.25;;;0.30;23.20;;;;;;5072459;28;20240;-70
2022/12/19 02:36:54;;;;;;;97.93;43.42;;;0.40;23.60;;;;;;5072708;28;20182;-70
2022/12/19 02:39:38;;;;;;;108.72;81.30;;;0.40;23.20;;;;;;5072578;28;20253;-70
2022/12/19 02:42:08;;;;;;;116.35;96.43;;;0.40;23.30;;;;;;5072019;28;20178;-70
2022/12/19 02:44:46;;;;;;;118.00;86.50;;;0.50;23.40;;;;;;5071962;28;20214;-70
2022/12/19 02:47:13;;;;;;;117.28;82.15;;;0.50;23.20;;;;;;5072199;28;20178;-70
2022/12/19 02:49:39;;;;;;;115.00;83.13;;;0.40;23.50;;;;;;5072419;28;20634;-71
2022/12/19 02:52:27;;;;;;;152.63;137.53;;;0.40;23.70;;;;;;5072437;28;20227;-70
2022/12/19 02:54:58;;;;;;;123.45;94.82;;;0.40;24.00;;;;;;5069054;28;20222;-70
2022/12/19 02:57:32;;;;;;;119.03;88.35;;;0.20;24.10;;;;;;5072485;28;20535;-70
2022/12/19 03:00:07;;;;;;;160.48;134.27;;;0.20;24.00;;;;;;5074735;28;20169;-70
2022/12/19 03:03:04;;;;;;;119.00;90.20;;;0.10;24.80;;;;;;5075363;28;20174;-70
2022/12/19 03:05:34;;;;;;;118.57;80.35;;;0.20;24.90;;;;;;5075260;28;20485;-70
2022/12/19 03:08:13;;;;;;;127.53;89.47;;;0.20;24.60;;;;;;5090901;28;20173;-70
2022/12/19 03:10:59;;;;;;;112.80;67.95;;;0.30;24.80;;;;;;5077129;28;20184;-70
2022/12/19 03:13:34;;;;;;;110.85;65.57;;;0.30;24.30;;;;;;5074869;28;20220;-71
2022/12/19 03:16:02;;;;;;;158.85;143.20;;;0.20;24.60;;;;;;5075642;28;20193;-70
2022/12/19 03:18:27;;;;;;;121.80;83.63;;;0.10;25.20;;;;;;5075891;28;20187;-70
2022/12/19 03:21:19;;;;;;;216.67;196.63;;;-0.10;25.20;;;;;;5075122;28;20178;-69
2022/12/19 03:23:45;;;;;;;142.65;111.40;;;-0.30;25.00;;;;;;5075759;28;20183;-70
2022/12/19 03:26:18;;;;;;;113.80;78.93;;;-0.30;25.80;;;;;;5074529;28;20560;-70
2022/12/19 03:29:07;;;;;;;117.38;74.65;;;-0.40;25.90;;;;;;5075023;28;20172;-70
2022/12/19 03:31:34;;;;;;;112.10;70.15;;;-0.40;26.90;;;;;;5074676;28;20649;-70
2022/12/19 03:34:04;;;;;;;114.40;68.35;;;-0.40;26.40;;;;;;5074574;28;20195;-70
2022/12/19 03:36:36;;;;;;;118.53;65.82;;;-0.40;27.00;;;;;;5074625;28;20181;-70
2022/12/19 03:39:04;;;;;;;123.30;80.20;;;-0.40;27.00;;;;;;5090880;28;20255;-70
2022/12/19 03:44:16;;;;;;;111.60;59.90;;;-0.40;26.60;;;;;;5074658;28;20695;-70
2022/12/19 03:46:47;;;;;;;131.13;115.32;;;-0.20;26.40;;;;;;5074952;28;20173;-70
2022/12/19 03:49:13;;;;;;;127.65;83.47;;;-0.20;25.50;;;;;;5074631;28;20177;-70
2022/12/19 03:51:48;;;;;;;129.15;86.28;;;-0.10;25.20;;;;;;5074358;28;20176;-70
2022/12/19 03:54:26;;;;;;;118.28;69.80;;;-0.10;25.10;;;;;;5090141;28;20208;-70
2022/12/19 03:57:15;;;;;;;114.57;69.95;;;-0.10;25.10;;;;;;5074388;28;20534;-70
2022/12/19 03:59:43;;;;;;;121.00;70.22;;;-0.20;25.40;;;;;;5089787;28;20178;-69
2022/12/19 04:02:12;;;;;;;109.20;68.57;;;-0.10;25.40;;;;;;5074146;28;20260;-69
2022/12/19 04:04:41;;;;;;;120.07;68.57;;;-0.10;25.90;;;;;;5089496;28;20230;-69
2022/12/19 04:07:07;;;;;;;114.05;77.38;;;-0.10;26.30;;;;;;5089680;28;20180;-70
2022/12/19 04:09:36;;;;;;;114.72;54.03;;;0.00;27.10;;;;;;5073944;28;20181;-70
2022/12/19 04:12:07;;;;;;;115.15;78.75;;;0.10;27.20;;;;;;5072805;28;20177;-70
2022/12/19 04:14:35;;;;;;;115.40;73.88;;;0.20;26.90;;;;;;5072520;28;20209;-70
2022/12/19 04:17:26;;;;;;;109.47;58.50;;;0.30;27.00;;;;;;5074010;28;20167;-70
2022/12/19 04:20:09;;;;;;;113.80;73.68;;;0.40;26.40;;;;;;5073711;28;20169;-70
2022/12/19 04:22:42;;;;;;;116.88;77.65;;;0.50;26.30;;;;;;5073260;28;20257;-70
2022/12/19 04:25:21;;;;;;;115.82;76.82;;;0.50;25.50;;;;;;5089209;28;20694;-70
2022/12/19 04:27:59;;;;;;;115.60;78.95;;;0.60;25.60;;;;;;5074062;28;20526;-70
2022/12/19 04:30:25;;;;;;;123.53;81.22;;;0.70;25.70;;;;;;5074069;28;20189;-70
2022/12/19 04:32:51;;;;;;;121.73;78.60;;;0.80;25.70;;;;;;5089569;28;20174;-70
2022/12/19 04:35:16;;;;;;;116.70;83.73;;;0.90;25.80;;;;;;5089449;28;20456;-70
2022/12/19 04:37:42;;;;;;;116.07;80.93;;;1.00;25.80;;;;;;5074272;28;20776;-70
2022/12/19 04:40:10;;;;;;;117.60;87.97;;;1.00;25.70;;;;;;5074252;28;20184;-70
2022/12/19 04:42:35;;;;;;;130.98;89.63;;;1.10;25.90;;;;;;5073694;28;20496;-70
2022/12/19 04:45:02;;;;;;;121.90;83.70;;;1.10;25.80;;;;;;5073379;28;20634;-70
2022/12/19 04:47:27;;;;;;;124.63;86.25;;;1.20;25.80;;;;;;5073294;28;20534;-69
2022/12/19 04:49:53;;;;;;;119.53;86.53;;;1.10;25.90;;;;;;5074008;28;20189;-69
2022/12/19 04:52:18;;;;;;;125.33;96.13;;;1.10;25.90;;;;;;5073025;28;20290;-69
2022/12/19 04:54:44;;;;;;;121.63;85.37;;;1.20;26.40;;;;;;5073129;28;20198;-70
2022/12/19 04:57:09;;;;;;;119.57;90.10;;;1.20;26.30;;;;;;5073399;28;20231;-70
2022/12/19 04:59:35;;;;;;;111.90;78.10;;;1.30;26.60;;;;;;5073303;28;20174;-70
2022/12/19 05:02:00;;;;;;;117.60;80.60;;;1.30;26.60;;;;;;5071783;28;20671;-70
2022/12/19 05:04:26;;;;;;;109.37;83.33;;;1.30;26.70;;;;;;5073548;28;20570;-70
2022/12/19 05:06:52;;;;;;;112.90;74.10;;;1.40;27.30;;;;;;5073589;28;20179;-70
2022/12/19 05:09:17;;;;;;;119.37;101.03;;;1.50;27.20;;;;;;5073252;28;20248;-70
2022/12/19 05:11:43;;;;;;;115.17;92.73;;;1.50;27.10;;;;;;5088371;28;20182;-70
2022/12/19 05:14:09;;;;;;;110.00;84.20;;;1.60;27.10;;;;;;5072722;28;20260;-71
2022/12/19 05:16:34;;;;;;;140.13;122.22;;;1.70;27.10;;;;;;5072572;28;20634;-71
2022/12/19 05:19:00;;;;;;;112.53;87.63;;;1.80;27.10;;;;;;5072752;28;20228;-70
2022/12/19 05:21:26;;;;;;;119.67;93.77;;;1.80;26.90;;;;;;5072818;28;20539;-70
2022/12/19 05:23:51;;;;;;;111.43;91.87;;;1.80;27.60;;;;;;5072309;28;20595;-70
2022/12/19 05:26:18;;;;;;;118.17;89.97;;;1.90;27.10;;;;;;5072369;28;20240;-70
2022/12/19 05:28:43;;;;;;;130.48;107.45;;;2.00;27.10;;;;;;5072452;28;20216;-70
2022/12/19 05:31:15;;;;;;;117.00;91.20;;;2.00;26.50;;;;;;5072494;28;20174;-70
2022/12/19 05:33:41;;;;;;;122.50;101.93;;;2.00;27.00;;;;;;5072070;28;20193;-70
2022/12/19 05:36:08;;;;;;;131.18;117.00;;;2.10;26.70;;;;;;5072926;28;20257;-70
2022/12/19 05:38:34;;;;;;;371.13;343.25;;;2.00;27.00;;;;;;5087979;28;20670;-69
2022/12/19 05:41:05;;;;;;;115.17;90.83;;;1.90;27.30;;;;;;5072116;28;20196;-70
2022/12/19 05:43:30;;;;;;;134.40;120.07;;;1.90;28.40;;;;;;5072036;28;20408;-68
2022/12/19 05:45:56;;;;;;;117.63;93.03;;;2.00;28.80;;;;;;5072147;28;20202;-68
2022/12/19 05:48:21;;;;;;;125.43;112.33;;;2.10;28.90;;;;;;5072229;28;20547;-69
2022/12/19 05:50:50;;;;;;;193.83;176.80;;;2.10;28.70;;;;;;5072262;28;20209;-69
2022/12/19 05:53:16;;;;;;;226.45;207.93;;;2.20;28.90;;;;;;5071951;28;20198;-69
2022/12/19 05:55:42;;;;;;;162.57;146.73;;;2.20;28.60;;;;;;5072103;28;20199;-70
2022/12/19 05:58:07;;;;;;;112.53;96.20;;;2.20;28.50;;;;;;5072382;28;20229;-69
2022/12/19 06:00:33;;;;;;;204.50;186.50;;;2.30;28.70;;;;;;5072387;28;20190;-71
2022/12/19 06:02:58;;;;;;;468.93;433.87;;;2.30;27.90;;;;;;5071966;28;20201;-70
2022/12/19 06:05:24;;;;;;;399.33;367.17;;;2.10;28.60;;;;;;5072211;28;20201;-70
2022/12/19 06:07:49;;;;;;;150.17;127.17;;;2.10;28.50;;;;;;5072454;28;20197;-70
2022/12/19 06:10:15;;;;;;;166.50;149.30;;;1.90;27.80;;;;;;5072290;28;20166;-72
2022/12/19 06:12:41;;;;;;;206.47;187.47;;;1.80;27.40;;;;;;5072934;28;20174;-70
2022/12/19 06:15:06;;;;;;;170.07;153.30;;;1.70;28.40;;;;;;5074600;28;20594;-70
2022/12/19 06:17:33;;;;;;;138.60;111.33;;;1.80;27.60;;;;;;5073213;28;20264;-69
2022/12/19 06:19:58;;;;;;;198.18;179.10;;;1.80;27.70;;;;;;5072940;28;20501;-69
2022/12/19 06:22:24;;;;;;;157.67;140.00;;;1.80;28.10;;;;;;5072909;28;20639;-70
2022/12/19 06:24:50;;;;;;;119.33;104.83;;;1.80;26.70;;;;;;5072508;28;20292;-70
2022/12/19 06:27:15;;;;;;;163.23;146.53;;;1.80;27.10;;;;;;5073204;28;20542;-69
2022/12/19 06:29:41;;;;;;;146.03;124.77;;;1.90;27.50;;;;;;5071898;28;20178;-69
2022/12/19 06:32:06;;;;;;;319.67;295.90;;;1.90;27.30;;;;;;5072052;28;20547;-70
2022/12/19 06:34:32;;;;;;;140.97;126.47;;;2.00;27.30;;;;;;5074086;28;20711;-70
2022/12/19 06:36:57;;;;;;;132.17;115.17;;;2.10;26.70;;;;;;5075927;28;20265;-70
2022/12/19 06:39:23;;;;;;;141.27;127.27;;;2.10;26.50;;;;;;5075593;28;20644;-69
2022/12/19 06:44:33;;;;;;;133.60;108.82;;;2.10;26.50;;;;;;5075648;28;20217;-69
2022/12/19 06:46:58;;;;;;;145.97;130.53;;;2.10;26.60;;;;;;5075301;28;20170;-69
2022/12/19 06:49:24;;;;;;;276.43;254.50;;;2.10;26.50;;;;;;5091437;28;20803;-70
2022/12/19 06:51:49;;;;;;;162.63;147.07;;;2.10;26.50;;;;;;5078723;28;20174;-70
2022/12/19 06:54:15;;;;;;;133.97;120.23;;;2.10;26.50;;;;;;5075994;28;20182;-70
2022/12/19 06:56:41;;;;;;;130.03;116.50;;;2.20;26.80;;;;;;5075149;28;20169;-70
2022/12/19 06:59:13;;;;;;;129.63;114.68;;;2.20;26.60;;;;;;5075411;28;20231;-70
2022/12/19 07:01:49;;;;;;;231.65;213.63;;;2.20;26.60;;;;;;5074849;28;20170;-69
2022/12/19 07:04:21;;;;;;;121.72;103.80;;;2.10;26.80;;;;;;5074985;28;20196;-69
2022/12/19 07:06:47;;;;;;;152.63;138.05;;;2.20;26.60;;;;;;5075596;28;20570;-69
2022/12/19 07:09:12;;;;;;;529.43;490.23;;;2.20;26.60;;;;;;5074701;28;20174;-70
2022/12/19 07:11:38;;;;;;;269.67;248.33;;;2.20;26.60;;;;;;5074451;28;20443;-69
2022/12/19 07:14:03;;;;;;;109.33;92.50;;;2.10;27.00;;;;;;5074888;28;20221;-70
2022/12/19 07:16:29;;;;;;;135.53;121.47;;;2.00;27.40;;;;;;5073568;28;20232;-70
2022/12/19 07:18:54;;;;;;;252.13;232.80;;;2.10;27.90;;;;;;5074854;28;20185;-69
2022/12/19 07:21:21;;;;;;;344.10;318.60;;;2.20;27.60;;;;;;5075199;28;20225;-69
2022/12/19 07:23:47;;;;;;;312.33;288.65;;;2.20;27.50;;;;;;5074597;28;20195;-70
2022/12/19 07:26:13;;;;;;;275.63;255.18;;;2.20;27.40;;;;;;5074598;28;20206;-69
2022/12/19 07:28:39;;;;;;;162.60;147.53;;;2.20;27.50;;;;;;5073267;28;20658;-69
2022/12/19 07:31:04;;;;;;;166.20;150.43;;;2.10;27.60;;;;;;5074544;28;20171;-69
2022/12/19 07:33:30;;;;;;;145.40;131.33;;;2.10;27.50;;;;;;5074279;28;20299;-70
2022/12/19 07:35:55;;;;;;;156.23;141.97;;;2.10;27.80;;;;;;5074272;28;20252;-69
2022/12/19 07:38:21;;;;;;;175.13;159.87;;;2.20;27.70;;;;;;5074490;28;20171;-69
2022/12/19 07:40:46;;;;;;;167.47;151.93;;;2.30;27.10;;;;;;5074469;28;20552;-69
2022/12/19 07:43:12;;;;;;;257.00;237.67;;;2.40;27.00;;;;;;5074263;28;20202;-69
2022/12/19 07:45:38;;;;;;;188.67;172.33;;;2.40;27.00;;;;;;5074087;28;20209;-68
2022/12/19 07:48:05;;;;;;;197.53;181.27;;;2.50;26.80;;;;;;5074237;28;20174;-69
2022/12/19 07:50:31;;;;;;;247.45;228.73;;;2.40;26.70;;;;;;5074098;28;20236;-69
2022/12/19 07:52:57;;;;;;;138.07;119.63;;;2.40;26.70;;;;;;5073765;28;20542;-69
2022/12/19 07:55:23;;;;;;;124.57;111.25;;;2.50;26.80;;;;;;5074174;28;20249;-70
2022/12/19 07:57:49;;;;;;;202.20;185.63;;;2.50;26.80;;;;;;5072937;28;20532;-70
2022/12/19 08:00:15;;;;;;;153.90;139.27;;;2.60;26.90;;;;;;5074288;28;20901;-70
2022/12/19 08:02:40;;;;;;;191.17;174.97;;;2.70;26.90;;;;;;5073897;28;20183;-70
2022/12/19 08:05:06;;;;;;;435.67;405.40;;;2.70;26.90;;;;;;5073847;28;20463;-69
2022/12/19 08:07:32;;;;;;;267.93;248.47;;;2.70;26.90;;;;;;5074057;28;20176;-69
2022/12/19 08:09:57;;;;;;;151.60;136.23;;;2.70;26.60;;;;;;5060899;28;20434;-69
2022/12/19 08:12:23;;;;;;;296.43;271.27;;;2.80;26.60;;;;;;5063359;28;20188;-71
2022/12/19 08:14:49;;;;;;;194.03;177.83;;;2.90;25.80;;;;;;5064993;28;20214;-68
2022/12/19 08:17:14;;;;;;;284.93;264.83;;;3.00;25.20;;;;;;5050722;28;20669;-69
2022/12/19 08:19:40;;;;;;;197.93;181.20;;;3.00;25.40;;;;;;5061522;28;20809;-68
2022/12/19 08:22:06;;;;;;;247.47;229.40;;;3.00;25.60;;;;;;5067738;28;20196;-69
2022/12/19 08:24:31;;;;;;;499.50;463.97;;;3.10;25.50;;;;;;5070376;28;20293;-68
2022/12/19 08:26:57;;;;;;;589.70;546.93;;;3.20;25.00;;;;;;5063936;28;20959;-69
2022/12/19 08:29:24;;;;;;;196.20;180.13;;;3.10;25.00;;;;;;5063705;28;20188;-69
2022/12/19 08:31:49;;;;;;;166.07;150.75;;;3.10;25.20;;;;;;5067064;28;20325;-68
2022/12/19 08:34:15;;;;;;;197.97;181.40;;;3.00;24.70;;;;;;5069256;28;20303;-69
2022/12/19 08:36:40;;;;;;;207.10;190.80;;;3.00;24.30;;;;;;5067996;28;20661;-70
2022/12/19 08:39:06;;;;;;;260.03;237.13;;;3.10;24.90;;;;;;5066730;28;20671;-70
2022/12/19 08:41:32;;;;;;;191.47;175.57;;;3.20;24.50;;;;;;5071332;28;20198;-68
2022/12/19 08:43:57;;;;;;;223.00;206.40;;;3.20;24.50;;;;;;5067777;28;20197;-69
2022/12/19 08:46:23;;;;;;;194.27;177.70;;;3.30;24.10;;;;;;5069100;28;20220;-69
2022/12/19 08:48:49;;;;;;;265.90;247.83;;;3.50;24.30;;;;;;5069630;28;20239;-69
2022/12/19 08:51:15;;;;;;;333.53;312.77;;;3.70;23.50;;;;;;5059909;28;20671;-70
2022/12/19 08:53:42;;;;;;;302.98;283.02;;;3.80;23.50;;;;;;5068166;28;20418;-69
2022/12/19 08:56:26;;;;;;;227.65;210.88;;;3.90;22.90;;;;;;5068925;28;20203;-70
2022/12/19 08:58:51;;;;;;;289.73;269.45;;;3.70;22.10;;;;;;5068477;28;20614;-68
2022/12/19 09:01:19;;;;;;;276.50;257.40;;;3.90;21.50;;;;;;5069121;28;20613;-69
2022/12/19 09:03:45;;;;;;;158.40;143.87;;;4.10;22.20;;;;;;5061817;28;20189;-68
2022/12/19 09:06:12;;;;;;;241.88;223.05;;;4.40;21.00;;;;;;5062974;28;21050;-69
2022/12/19 09:08:39;;;;;;;373.23;350.97;;;4.60;19.90;;;;;;5072977;28;20260;-69
2022/12/19 09:11:17;;;;;;;266.93;247.83;;;4.80;20.00;;;;;;5067263;28;20869;-68
2022/12/19 09:13:43;;;;;;;284.00;263.43;;;4.90;20.10;;;;;;5063121;28;20436;-69
2022/12/19 09:16:18;;;;;;;180.77;166.47;;;5.00;18.60;;;;;;5063931;28;20424;-71
2022/12/19 09:18:47;;;;;;;299.63;279.47;;;4.90;18.70;;;;;;5056965;28;20427;-71
2022/12/19 09:21:12;;;;;;;274.17;255.47;;;4.90;18.70;;;;;;5056126;28;20439;-69
2022/12/19 09:23:38;;;;;;;252.47;234.97;;;4.90;19.30;;;;;;5089189;28;20428;-70
2022/12/19 09:26:07;;;;;;;235.97;218.10;;;5.00;19.50;;;;;;5073332;28;20478;-71
2022/12/19 09:28:33;;;;;;;350.00;328.70;;;5.20;18.10;;;;;;5073470;28;20422;-70
2022/12/19 09:31:02;;;;;;;300.37;279.93;;;5.00;18.70;;;;;;5053863;28;20422;-70
2022/12/19 09:33:30;;;;;;;352.77;330.93;;;5.20;17.90;;;;;;5073401;28;20425;-69
2022/12/19 09:35:56;;;;;;;238.83;219.13;;;5.20;18.30;;;;;;5073451;28;20533;-69
2022/12/19 09:38:24;;;;;;;374.70;352.67;;;5.40;17.70;;;;;;5073145;28;21043;-69
2022/12/19 09:41:22;;;;;;;357.67;335.67;;;5.50;17.40;;;;;;5073078;28;20181;-69
2022/12/19 09:44:07;;;;;;;310.43;290.57;;;5.60;17.40;;;;;;5072306;28;20432;-70
2022/12/19 09:46:50;;;;;;;395.23;373.00;;;5.80;17.40;;;;;;5073253;28;20416;-69
2022/12/19 09:49:28;;;;;;;473.30;441.83;;;6.00;16.60;;;;;;5072143;28;20456;-70
2022/12/19 09:51:58;;;;;;;225.87;208.90;;;6.20;16.70;;;;;;5072268;28;20545;-70
2022/12/19 09:54:32;;;;;;;377.57;355.07;;;6.30;15.80;;;;;;5072840;28;20426;-69
2022/12/19 09:57:02;;;;;;;358.00;334.17;;;6.50;15.00;;;;;;5072585;28;20441;-69
2022/12/19 09:59:41;;;;;;;542.60;506.67;;;6.50;15.40;;;;;;5072509;28;20543;-70
2022/12/19 10:02:40;;;;;;;306.07;284.33;;;6.30;15.10;;;;;;5073048;28;20400;-69
2022/12/19 10:05:32;;;;;;;431.73;401.47;;;6.20;16.20;;;;;;5064949;28;20475;-69
2022/12/19 10:07:58;;;;;;;552.20;514.13;;;5.90;17.00;;;;;;5072590;28;21088;-69
2022/12/19 10:10:44;;;;;;;439.97;409.83;;;5.80;17.60;;;;;;5076334;28;20491;-69
2022/12/19 10:13:48;;;;;;;515.00;477.73;;;5.50;18.40;;;;;;5076756;28;20400;-69
2022/12/19 10:16:38;;;;;;;321.37;297.63;;;5.40;19.30;;;;;;5053928;28;20426;-69
2022/12/19 10:19:07;;;;;;;439.93;409.97;;;5.40;19.60;;;;;;5076776;28;20412;-69
2022/12/19 10:21:47;;;;;;;422.87;391.90;;;5.40;19.30;;;;;;5091684;28;20461;-69
2022/12/19 10:24:52;;;;;;;299.97;276.60;;;5.30;18.50;;;;;;5076303;28;20427;-69
2022/12/19 10:27:45;;;;;;;528.23;491.10;;;5.30;18.70;;;;;;5077001;28;20493;-69
2022/12/19 10:30:11;;;;;;;420.30;389.33;;;5.20;18.70;;;;;;5075790;28;20410;-68
2022/12/19 10:33:00;;;;;;;410.20;380.93;;;5.00;19.00;;;;;;5075524;28;20411;-69
2022/12/19 10:35:35;;;;;;;388.50;359.73;;;5.10;19.10;;;;;;5075410;28;20251;-68
2022/12/19 10:38:17;;;;;;;473.83;439.17;;;5.10;19.00;;;;;;5075680;28;20413;-69
2022/12/19 10:40:50;;;;;;;295.60;274.43;;;5.30;18.90;;;;;;5075472;28;20423;-69
2022/12/19 10:43:21;;;;;;;323.77;298.80;;;5.40;19.40;;;;;;5090874;28;20416;-68
2022/12/19 10:45:50;;;;;;;387.37;362.23;;;5.60;18.80;;;;;;5090874;28;20456;-69
2022/12/19 10:48:21;;;;;;;621.00;578.03;;;6.00;18.70;;;;;;5075662;28;20412;-69
2022/12/19 10:50:47;;;;;;;237.77;218.43;;;6.30;17.40;;;;;;5075249;28;20927;-68
2022/12/19 10:53:15;;;;;;;463.87;431.57;;;6.50;16.30;;;;;;5075149;28;20412;-68
2022/12/19 10:55:46;;;;;;;358.73;333.30;;;6.50;15.80;;;;;;5090828;28;20205;-68
2022/12/19 10:58:26;;;;;;;484.80;450.33;;;6.60;15.50;;;;;;5075811;28;20411;-69
2022/12/19 11:01:25;;;;;;;427.47;400.77;;;6.60;16.20;;;;;;5075062;28;20761;-69
2022/12/19 11:04:16;;;;;;;267.73;246.70;;;6.90;16.30;;;;;;5074978;28;20420;-69
2022/12/19 11:06:47;;;;;;;365.50;341.33;;;7.10;15.70;;;;;;5069040;28;20511;-70
2022/12/19 11:09:21;;;;;;;235.83;217.27;;;7.30;14.60;;;;;;5075008;28;20465;-69
2022/12/19 11:11:57;;;;;;;164.37;149.73;;;7.30;14.80;;;;;;5074909;28;20468;-68
2022/12/19 11:14:26;;;;;;;294.93;274.57;;;7.40;14.50;;;;;;5074937;28;20423;-68
2022/12/19 11:16:52;;;;;;;387.30;361.37;;;7.40;14.40;;;;;;5075163;28;20417;-69
2022/12/19 11:19:26;;;;;;;412.70;385.20;;;7.50;14.40;;;;;;5089973;28;20409;-69
2022/12/19 11:21:55;;;;;;;389.27;361.40;;;7.70;14.50;;;;;;5074746;28;20171;-69
2022/12/19 11:24:32;;;;;;;110.97;93.83;;;7.80;13.90;;;;;;5074971;28;20451;-70
2022/12/19 11:26:58;;;;;;;293.03;272.03;;;7.90;13.10;;;;;;5090375;28;20406;-70
2022/12/19 11:29:57;;;;;;;324.77;300.20;;;8.00;12.80;;;;;;5074636;28;20780;-69
2022/12/19 11:32:31;;;;;;;473.03;442.87;;;8.00;13.40;;;;;;5062071;28;20203;-69
2022/12/19 11:35:04;;;;;;;384.23;358.30;;;7.80;13.40;;;;;;5075120;28;20448;-69
2022/12/19 11:37:40;;;;;;;349.17;325.17;;;7.60;13.30;;;;;;5090131;28;20928;-70
2022/12/19 11:40:20;;;;;;;325.97;302.47;;;7.50;13.60;;;;;;5090298;28;20529;-69
2022/12/19 11:42:57;;;;;;;387.30;360.30;;;7.40;14.60;;;;;;5074393;28;20419;-69
2022/12/19 11:45:49;;;;;;;467.07;435.37;;;7.10;15.10;;;;;;5074642;28;20476;-69
2022/12/19 11:48:31;;;;;;;455.87;423.60;;;7.00;16.20;;;;;;5074734;28;20424;-69
2022/12/19 11:51:30;;;;;;;450.00;419.53;;;6.90;17.00;;;;;;5074364;28;20429;-69
2022/12/19 11:54:26;;;;;;;371.97;346.13;;;6.90;17.10;;;;;;5074672;28;20521;-69
2022/12/19 11:56:52;;;;;;;292.10;269.37;;;6.80;17.30;;;;;;5074521;28;20431;-69
2022/12/19 11:59:23;;;;;;;318.00;295.53;;;7.10;17.70;;;;;;5070342;28;21278;-69
2022/12/19 12:02:27;;;;;;;302.13;279.33;;;7.20;17.30;;;;;;5069599;28;20187;-69
2022/12/19 12:05:17;;;;;;;207.63;190.87;;;7.50;16.50;;;;;;5069347;28;20506;-69
2022/12/19 12:07:44;;;;;;;266.07;245.27;;;7.90;15.50;;;;;;5070694;28;20426;-69
2022/12/19 12:10:18;;;;;;;385.47;358.67;;;8.10;14.50;;;;;;5069831;28;20934;-70
2022/12/19 12:12:49;;;;;;;353.90;328.67;;;8.00;14.30;;;;;;5069295;28;20421;-70
2022/12/19 12:15:26;;;;;;;432.37;405.40;;;8.00;14.70;;;;;;5069849;28;20435;-70
2022/12/19 12:18:02;;;;;;;392.77;364.77;;;7.80;14.70;;;;;;5070100;28;20841;-70
2022/12/19 12:20:30;;;;;;;412.93;383.70;;;7.60;14.90;;;;;;5071135;28;20488;-70
2022/12/19 12:23:03;;;;;;;401.53;373.77;;;7.50;15.30;;;;;;5067989;28;20433;-69
2022/12/19 12:26:01;;;;;;;397.07;370.30;;;7.30;16.00;;;;;;5069461;28;20467;-69
2022/12/19 12:28:52;;;;;;;355.67;330.97;;;7.00;16.00;;;;;;5073509;28;20414;-70
2022/12/19 12:31:38;;;;;;;425.33;396.73;;;6.90;16.20;;;;;;5072859;28;20451;-69
2022/12/19 12:34:21;;;;;;;386.17;362.40;;;7.00;16.30;;;;;;5073501;28;20461;-69
2022/12/19 12:37:02;;;;;;;416.50;388.57;;;7.00;16.30;;;;;;5073732;28;20779;-69
2022/12/19 12:40:01;;;;;;;476.50;445.33;;;7.00;15.90;;;;;;5073467;28;20925;-68
2022/12/19 12:42:38;;;;;;;449.37;422.23;;;6.90;16.30;;;;;;5073297;28;20447;-68
2022/12/19 12:45:19;;;;;;;268.93;249.70;;;7.10;16.00;;;;;;5072957;28;20473;-69